createdAt,value
2022-10-05T00:01:33.259Z,7.31
2022-10-05T00:04:13.790Z,7.33
2022-10-05T00:06:41.863Z,7.35
2022-10-05T00:09:16.561Z,7.36
2022-10-05T00:11:45.079Z,7.37
2022-10-05T00:14:18.303Z,7.38
2022-10-05T00:16:45.663Z,7.37
2022-10-05T00:19:24.704Z,7.39
2022-10-05T00:21:51.829Z,7.39
2022-10-05T00:24:20.290Z,7.39
2022-10-05T00:26:55.396Z,7.38
2022-10-05T00:29:25.218Z,7.37
2022-10-05T00:31:53.324Z,7.34
2022-10-05T00:34:20.862Z,7.31
2022-10-05T00:36:48.744Z,7.28
2022-10-05T00:39:18.740Z,7.25
2022-10-05T00:42:08.536Z,7.24
2022-10-05T00:44:55.337Z,7.23
2022-10-05T00:47:44.784Z,7.23
2022-10-05T00:50:44.314Z,7.25
2022-10-05T00:53:33.278Z,7.27
2022-10-05T00:56:22.427Z,7.28
2022-10-05T00:59:10.352Z,7.28
2022-10-05T01:01:45.294Z,7.28
2022-10-05T01:04:20.562Z,7.28
2022-10-05T01:06:53.237Z,7.28
2022-10-05T01:09:39.039Z,7.28
2022-10-05T01:12:14.131Z,7.30
2022-10-05T01:14:53.098Z,7.31
2022-10-05T01:17:28.745Z,7.32
2022-10-05T01:20:13.297Z,7.31
2022-10-05T01:23:01.593Z,7.31
2022-10-05T01:26:03.180Z,7.30
2022-10-05T01:29:03.389Z,7.30
2022-10-05T01:32:08.657Z,7.29
2022-10-05T01:34:39.877Z,7.28
2022-10-05T01:37:34.978Z,7.27
2022-10-05T01:40:24.093Z,7.25
2022-10-05T01:43:19.196Z,7.23
2022-10-05T01:46:14.631Z,7.21
2022-10-05T01:49:19.312Z,7.18
2022-10-05T01:52:17.563Z,7.15
2022-10-05T01:54:48.406Z,7.12
2022-10-05T01:57:43.317Z,7.10
2022-10-05T02:00:15.436Z,7.08
2022-10-05T02:02:57.558Z,7.06
2022-10-05T02:05:30.459Z,7.02
2022-10-05T02:08:04.119Z,6.98
2022-10-05T02:10:53.734Z,6.94
2022-10-05T02:13:41.638Z,6.91
2022-10-05T02:16:16.005Z,6.89
2022-10-05T02:18:52.987Z,6.88
2022-10-05T02:21:20.544Z,6.89
2022-10-05T02:23:49.928Z,6.90
2022-10-05T02:26:17.318Z,6.91
2022-10-05T02:28:52.701Z,6.92
2022-10-05T02:31:25.004Z,6.94
2022-10-05T02:33:52.665Z,6.96
2022-10-05T02:36:28.206Z,6.96
2022-10-05T02:39:43.383Z,6.93
2022-10-05T02:42:11.688Z,6.89
2022-10-05T02:44:49.678Z,6.86
2022-10-05T02:47:47.855Z,6.83
2022-10-05T02:50:18.158Z,6.79
2022-10-05T02:53:03.537Z,6.78
2022-10-05T02:55:33.553Z,6.76
2022-10-05T02:58:25.597Z,6.75
2022-10-05T03:01:03.495Z,6.75
2022-10-05T03:03:35.558Z,6.77
2022-10-05T03:06:26.423Z,6.80
2022-10-05T03:09:03.455Z,6.86
2022-10-05T03:11:49.136Z,6.90
2022-10-05T03:14:31.958Z,6.94
2022-10-05T03:17:23.055Z,6.99
2022-10-05T03:20:12.734Z,7.04
2022-10-05T03:22:53.917Z,7.07
2022-10-05T03:25:31.117Z,7.11
2022-10-05T03:28:14.567Z,7.14
2022-10-05T03:31:08.300Z,7.16
2022-10-05T03:34:13.557Z,7.18
2022-10-05T03:37:00.377Z,7.20
2022-10-05T03:39:40.410Z,7.23
2022-10-05T03:42:35.181Z,7.24
2022-10-05T03:45:33.164Z,7.25
2022-10-05T03:48:12.196Z,7.29
2022-10-05T03:50:58.087Z,7.31
2022-10-05T03:53:31.650Z,7.34
2022-10-05T03:56:10.709Z,7.37
2022-10-05T03:59:01.310Z,7.39
2022-10-05T04:01:51.383Z,7.42
2022-10-05T04:04:34.518Z,7.44
2022-10-05T04:07:02.297Z,7.44
2022-10-05T04:09:41.383Z,7.45
2022-10-05T04:12:20.326Z,7.45
2022-10-05T04:14:50.421Z,7.43
2022-10-05T04:17:32.200Z,7.42
2022-10-05T04:20:04.867Z,7.41
2022-10-05T04:22:43.501Z,7.39
2022-10-05T04:25:16.178Z,7.37
2022-10-05T04:28:13.848Z,7.32
2022-10-05T04:30:44.693Z,7.28
2022-10-05T04:33:18.741Z,7.27
2022-10-05T04:35:58.495Z,7.28
2022-10-05T04:38:47.874Z,7.31
2022-10-05T04:41:31.832Z,7.37
2022-10-05T04:44:25.366Z,7.44
2022-10-05T04:47:08.701Z,7.51
2022-10-05T04:50:03.812Z,7.60
2022-10-05T04:52:46.856Z,7.67
2022-10-05T04:55:29.919Z,7.69
2022-10-05T04:58:03.154Z,7.73
2022-10-05T05:00:49.611Z,7.75
2022-10-05T05:03:40.464Z,7.78
2022-10-05T05:06:20.085Z,7.81
2022-10-05T05:09:13.654Z,7.86
2022-10-05T05:12:04.147Z,7.90
2022-10-05T05:15:04.696Z,7.96
2022-10-05T05:18:10.467Z,8.01
2022-10-05T05:21:03.098Z,8.07
2022-10-05T05:24:04.418Z,8.12
2022-10-05T05:27:09.493Z,8.18
2022-10-05T05:29:52.913Z,8.23
2022-10-05T05:32:43.317Z,8.27
2022-10-05T05:35:28.058Z,8.32
2022-10-05T05:38:20.613Z,8.38
2022-10-05T05:41:08.672Z,8.43
2022-10-05T05:43:56.898Z,8.46
2022-10-05T05:46:51.597Z,8.48
2022-10-05T05:49:24.558Z,8.50
2022-10-05T05:51:56.611Z,8.52
2022-10-05T05:54:39.578Z,8.53
2022-10-05T05:57:19.216Z,8.57
2022-10-05T05:59:52.691Z,8.61
2022-10-05T06:02:24.336Z,8.65
2022-10-05T06:04:57.636Z,8.70
2022-10-05T06:07:30.584Z,8.76
2022-10-05T06:10:22.923Z,8.82
2022-10-05T06:13:05.587Z,8.90
2022-10-05T06:15:40.651Z,9.00
2022-10-05T06:18:13.494Z,9.11
2022-10-05T06:20:47.298Z,9.24
2022-10-05T06:23:28.762Z,9.36
2022-10-05T06:26:09.741Z,9.50
2022-10-05T06:28:38.651Z,9.63
2022-10-05T06:31:12.295Z,9.77
2022-10-05T06:33:49.094Z,9.90
2022-10-05T06:36:33.407Z,10.02
2022-10-05T06:39:27.725Z,10.14
2022-10-05T06:42:01.424Z,10.28
2022-10-05T06:45:07.232Z,10.40
2022-10-05T06:48:04.921Z,10.52
2022-10-05T06:51:15.740Z,10.66
2022-10-05T06:54:16.955Z,10.78
2022-10-05T06:56:50.173Z,10.90
2022-10-05T06:59:43.357Z,11.02
2022-10-05T07:02:29.947Z,11.15
2022-10-05T07:05:28.976Z,11.28
2022-10-05T07:08:01.652Z,11.41
2022-10-05T07:10:34.422Z,11.50
2022-10-05T07:13:20.625Z,11.59
2022-10-05T07:15:50.637Z,11.68
2022-10-05T07:18:23.781Z,11.75
2022-10-05T07:21:00.700Z,11.82
2022-10-05T07:23:42.609Z,11.92
2022-10-05T07:26:16.139Z,12.02
2022-10-05T07:29:08.757Z,12.13
2022-10-05T07:31:51.774Z,12.25
2022-10-05T07:34:47.967Z,12.37
2022-10-05T07:37:44.457Z,12.50
2022-10-05T07:40:18.749Z,12.63
2022-10-05T07:43:22.159Z,12.77
2022-10-05T07:46:10.137Z,12.94
2022-10-05T07:48:57.449Z,13.09
2022-10-05T07:51:37.877Z,13.22
2022-10-05T07:54:08.618Z,13.34
2022-10-05T07:56:43.447Z,13.45
2022-10-05T07:59:44.283Z,13.57
2022-10-05T08:02:43.420Z,13.67
2022-10-05T08:05:16.775Z,13.78
2022-10-05T08:07:45.966Z,13.86
2022-10-05T08:10:23.599Z,13.93
2022-10-05T08:13:09.460Z,14.04
2022-10-05T08:15:46.333Z,14.19
2022-10-05T08:18:19.907Z,14.32
2022-10-05T08:20:55.781Z,14.45
2022-10-05T08:23:34.402Z,14.57
2022-10-05T08:26:24.790Z,14.70
2022-10-05T08:29:11.464Z,14.81
2022-10-05T08:31:43.900Z,14.94
2022-10-05T08:34:48.808Z,15.05
2022-10-05T08:37:25.306Z,15.16
2022-10-05T08:40:18.556Z,15.26
2022-10-05T08:42:57.896Z,15.37
2022-10-05T08:45:51.037Z,15.51
2022-10-05T08:48:49.521Z,15.65
2022-10-05T08:51:35.806Z,15.79
2022-10-05T08:54:21.628Z,15.93
2022-10-05T08:57:11.996Z,16.07
2022-10-05T08:59:48.459Z,16.21
2022-10-05T09:02:32.352Z,16.35
2022-10-05T09:05:33.277Z,16.48
2022-10-05T09:08:12.372Z,16.65
2022-10-05T09:11:07.697Z,16.80
2022-10-05T09:13:59.010Z,16.97
2022-10-05T09:16:51.671Z,17.14
2022-10-05T09:19:50.033Z,17.25
2022-10-05T09:22:17.521Z,17.37
2022-10-05T09:24:58.624Z,17.50
2022-10-05T09:27:38.016Z,17.64
2022-10-05T09:30:06.001Z,17.77
2022-10-05T09:32:45.208Z,17.87
2022-10-05T09:35:21.387Z,17.98
2022-10-05T09:38:10.636Z,18.09
2022-10-05T09:40:37.895Z,18.17
2022-10-05T09:43:26.965Z,18.21
2022-10-05T09:46:14.384Z,18.26
2022-10-05T09:49:16.738Z,18.30
2022-10-05T09:52:09.896Z,18.32
2022-10-05T09:54:49.457Z,18.34
2022-10-05T09:57:35.334Z,18.38
2022-10-05T10:00:26.738Z,18.39
2022-10-05T10:03:08.982Z,18.42
2022-10-05T10:05:54.939Z,18.46
2022-10-05T10:08:52.422Z,18.50
2022-10-05T10:11:56.627Z,18.51
2022-10-05T10:14:45.496Z,18.54
2022-10-05T10:17:33.275Z,18.59
2022-10-05T10:20:15.424Z,18.63
2022-10-05T10:23:23.530Z,18.63
2022-10-05T10:26:00.096Z,18.62
2022-10-05T10:28:43.815Z,18.63
2022-10-05T10:31:39.041Z,18.65
2022-10-05T10:34:34.362Z,18.64
2022-10-05T10:37:20.144Z,18.68
2022-10-05T10:40:09.097Z,18.71
2022-10-05T10:42:59.596Z,18.74
2022-10-05T10:45:39.023Z,18.76
2022-10-05T10:48:32.090Z,18.75
2022-10-05T10:51:19.636Z,18.72
2022-10-05T10:54:24.349Z,18.73
2022-10-05T10:57:15.972Z,18.77
2022-10-05T10:59:51.116Z,18.77
2022-10-05T11:02:30.377Z,18.80
2022-10-05T11:05:03.659Z,18.84
2022-10-05T11:07:33.754Z,18.87
2022-10-05T11:10:35.004Z,18.91
2022-10-05T11:13:17.634Z,18.98
2022-10-05T11:15:44.896Z,19.01
2022-10-05T11:18:47.336Z,19.04
2022-10-05T11:21:26.796Z,19.04
2022-10-05T11:24:19.929Z,19.03
2022-10-05T11:27:25.084Z,19.02
2022-10-05T11:30:11.197Z,19.01
2022-10-05T11:33:03.735Z,19.03
2022-10-05T11:36:00.015Z,19.04
2022-10-05T11:38:40.657Z,19.09
2022-10-05T11:41:12.614Z,19.12
2022-10-05T11:43:57.859Z,19.16
2022-10-05T11:46:30.914Z,19.20
2022-10-05T11:49:00.976Z,19.23
2022-10-05T11:51:34.544Z,19.25
2022-10-05T11:54:23.615Z,19.23
2022-10-05T11:57:01.258Z,19.19
2022-10-05T11:59:40.549Z,19.18
2022-10-05T12:02:40.048Z,19.20
2022-10-05T12:05:59.269Z,19.24
2022-10-05T12:08:48.797Z,19.29
2022-10-05T12:11:43.313Z,19.36
2022-10-05T12:14:24.510Z,19.43
2022-10-05T12:17:15.269Z,19.49
2022-10-05T12:19:46.071Z,19.56
2022-10-05T12:22:59.672Z,19.60
2022-10-05T12:25:36.115Z,19.67
2022-10-05T12:28:11.470Z,19.73
2022-10-05T12:30:52.152Z,19.77
2022-10-05T12:33:25.179Z,19.82
2022-10-05T12:36:12.738Z,19.83
2022-10-05T12:38:49.720Z,19.82
2022-10-05T12:41:28.062Z,19.79
2022-10-05T12:44:16.276Z,19.76
2022-10-05T12:47:02.558Z,19.73
2022-10-05T12:49:44.648Z,19.72
2022-10-05T12:52:38.584Z,19.69
2022-10-05T12:55:22.389Z,19.63
2022-10-05T12:58:35.671Z,19.57
2022-10-05T13:01:07.961Z,19.51
2022-10-05T13:03:38.633Z,19.51
2022-10-05T13:06:22.476Z,19.56
2022-10-05T13:09:08.994Z,19.61
2022-10-05T13:11:39.182Z,19.70
2022-10-05T13:14:36.458Z,19.78
2022-10-05T13:17:08.816Z,19.87
2022-10-05T13:19:39.853Z,19.92
2022-10-05T13:22:21.455Z,19.95
2022-10-05T13:24:57.190Z,19.97
2022-10-05T13:27:30.459Z,20.01
2022-10-05T13:29:59.396Z,20.04
2022-10-05T13:32:39.538Z,20.07
2022-10-05T13:36:00.302Z,20.10
2022-10-05T13:38:54.637Z,20.15
2022-10-05T13:41:44.114Z,20.19
2022-10-05T13:44:15.057Z,20.22
2022-10-05T13:47:04.214Z,20.24
2022-10-05T13:50:09.082Z,20.24
2022-10-05T13:53:11.914Z,20.25
2022-10-05T13:56:01.600Z,20.27
2022-10-05T13:58:28.846Z,20.30
2022-10-05T14:01:00.206Z,20.32
2022-10-05T14:03:30.348Z,20.33
2022-10-05T14:06:00.220Z,20.32
2022-10-05T14:08:34.214Z,20.30
2022-10-05T14:11:22.043Z,20.26
2022-10-05T14:13:50.567Z,20.20
2022-10-05T14:16:24.403Z,20.15
2022-10-05T14:18:54.655Z,20.12
2022-10-05T14:21:29.117Z,20.08
2022-10-05T14:23:59.654Z,20.03
2022-10-05T14:26:26.786Z,19.98
2022-10-05T14:29:17.338Z,19.95
2022-10-05T14:31:55.357Z,19.90
2022-10-05T14:34:37.072Z,19.84
2022-10-05T14:37:21.115Z,19.79
2022-10-05T14:39:50.312Z,19.74
2022-10-05T14:42:25.657Z,19.67
2022-10-05T14:45:01.942Z,19.61
2022-10-05T14:47:32.120Z,19.53
2022-10-05T14:50:26.631Z,19.47
2022-10-05T14:53:12.224Z,19.41
2022-10-05T14:55:51.058Z,19.34
2022-10-05T14:58:56.743Z,19.27
2022-10-05T15:01:31.204Z,19.21
2022-10-05T15:04:07.476Z,19.15
2022-10-05T15:07:15.696Z,19.07
2022-10-05T15:10:02.700Z,18.97
2022-10-05T15:12:36.230Z,18.89
2022-10-05T15:15:12.061Z,18.82
2022-10-05T15:17:50.979Z,18.72
2022-10-05T15:20:24.893Z,18.61
2022-10-05T15:23:08.426Z,18.51
2022-10-05T15:25:40.746Z,18.42
2022-10-05T15:28:14.156Z,18.31
2022-10-05T15:30:48.227Z,18.21
2022-10-05T15:33:28.076Z,18.12
2022-10-05T15:36:00.859Z,18.01
2022-10-05T15:38:32.810Z,17.92
2022-10-05T15:41:21.453Z,17.83
2022-10-05T15:44:10.217Z,17.72
2022-10-05T15:46:56.808Z,17.61
2022-10-05T15:49:34.711Z,17.49
2022-10-05T15:52:28.381Z,17.37
2022-10-05T15:55:20.215Z,17.24
2022-10-05T15:57:59.958Z,17.12
2022-10-05T16:00:28.428Z,17.03
2022-10-05T16:03:09.103Z,16.93
2022-10-05T16:06:03.494Z,16.81
2022-10-05T16:08:49.372Z,16.67
2022-10-05T16:11:37.004Z,16.55
2022-10-05T16:14:34.977Z,16.44
2022-10-05T16:17:14.513Z,16.31
2022-10-05T16:20:07.885Z,16.20
2022-10-05T16:22:59.909Z,16.09
2022-10-05T16:25:34.970Z,15.98
2022-10-05T16:28:17.003Z,15.88
2022-10-05T16:31:01.109Z,15.77
2022-10-05T16:33:37.247Z,15.66
2022-10-05T16:36:18.020Z,15.57
2022-10-05T16:38:48.446Z,15.46
2022-10-05T16:41:43.902Z,15.37
2022-10-05T16:44:39.654Z,15.27
2022-10-05T16:47:31.404Z,15.18
2022-10-05T16:50:22.419Z,15.10
2022-10-05T16:53:21.733Z,15.01
2022-10-05T16:55:53.515Z,14.92
2022-10-05T16:58:24.128Z,14.85
2022-10-05T17:01:23.337Z,14.78
2022-10-05T17:04:12.497Z,14.69
2022-10-05T17:06:48.634Z,14.60
2022-10-05T17:09:36.060Z,14.54
2022-10-05T17:12:40.687Z,14.48
2022-10-05T17:15:20.228Z,14.40
2022-10-05T17:18:02.020Z,14.33
2022-10-05T17:20:56.232Z,14.26
2022-10-05T17:23:44.456Z,14.19
2022-10-05T17:26:24.012Z,14.10
2022-10-05T17:29:10.240Z,14.03
2022-10-05T17:32:00.379Z,13.98
2022-10-05T17:34:38.926Z,13.92
2022-10-05T17:37:39.829Z,13.87
2022-10-05T17:40:36.677Z,13.81
2022-10-05T17:43:16.485Z,13.75
2022-10-05T17:45:46.327Z,13.68
2022-10-05T17:48:42.166Z,13.63
2022-10-05T17:51:57.544Z,13.56
2022-10-05T17:55:09.343Z,13.50
2022-10-05T17:57:37.395Z,13.48
2022-10-05T18:00:07.076Z,13.46
2022-10-05T18:02:40.407Z,13.47
2022-10-05T18:05:12.884Z,13.46
2022-10-05T18:07:41.264Z,13.46
2022-10-05T18:10:17.937Z,13.44
2022-10-05T18:13:02.294Z,13.41
2022-10-05T18:15:30.194Z,13.37
2022-10-05T18:18:19.957Z,13.34
2022-10-05T18:21:17.713Z,13.31
2022-10-05T18:23:52.738Z,13.28
2022-10-05T18:26:35.673Z,13.25
2022-10-05T18:29:15.027Z,13.19
2022-10-05T18:32:01.535Z,13.13
2022-10-05T18:35:00.990Z,13.07
2022-10-05T18:37:36.139Z,13.01
2022-10-05T18:40:27.733Z,12.97
2022-10-05T18:43:21.845Z,12.92
2022-10-05T18:46:16.058Z,12.89
2022-10-05T18:49:20.949Z,12.86
2022-10-05T18:51:53.656Z,12.82
2022-10-05T18:54:59.095Z,12.78
2022-10-05T18:57:42.933Z,12.73
2022-10-05T19:00:20.700Z,12.69
2022-10-05T19:02:59.205Z,12.65
2022-10-05T19:05:52.911Z,12.61
2022-10-05T19:08:28.620Z,12.58
2022-10-05T19:11:23.678Z,12.56
2022-10-05T19:14:00.163Z,12.55
2022-10-05T19:16:37.523Z,12.53
2022-10-05T19:19:16.320Z,12.51
2022-10-05T19:22:11.973Z,12.48
2022-10-05T19:24:42.192Z,12.44
2022-10-05T19:27:36.344Z,12.41
2022-10-05T19:30:23.696Z,12.38
2022-10-05T19:32:58.885Z,12.37
2022-10-05T19:35:41.853Z,12.38
2022-10-05T19:38:42.856Z,12.37
2022-10-05T19:41:17.229Z,12.34
2022-10-05T19:43:58.826Z,12.31
2022-10-05T19:46:55.679Z,12.25
2022-10-05T19:49:44.510Z,12.20
2022-10-05T19:52:14.527Z,12.16
2022-10-05T19:54:42.870Z,12.13
2022-10-05T19:57:18.423Z,12.10
2022-10-05T19:59:48.145Z,12.08
2022-10-05T20:02:18.177Z,12.07
2022-10-05T20:04:50.023Z,12.06
2022-10-05T20:07:22.345Z,12.05
2022-10-05T20:10:15.077Z,12.04
2022-10-05T20:12:51.141Z,12.02
2022-10-05T20:15:52.134Z,12.00
2022-10-05T20:18:57.899Z,11.98
2022-10-05T20:22:02.237Z,11.96
2022-10-05T20:24:32.311Z,11.92
2022-10-05T20:27:07.139Z,11.88
2022-10-05T20:29:39.602Z,11.85
2022-10-05T20:32:15.603Z,11.82
2022-10-05T20:34:44.742Z,11.79
2022-10-05T20:37:15.121Z,11.76
2022-10-05T20:39:42.773Z,11.72
2022-10-05T20:42:11.160Z,11.70
2022-10-05T20:44:38.883Z,11.67
2022-10-05T20:47:09.210Z,11.65
2022-10-05T20:49:37.960Z,11.63
2022-10-05T20:52:06.742Z,11.63
2022-10-05T20:54:34.413Z,11.62
2022-10-05T20:57:02.959Z,11.62
2022-10-05T20:59:30.246Z,11.60
2022-10-05T21:01:59.406Z,11.60
2022-10-05T21:04:32.792Z,11.61
2022-10-05T21:07:07.360Z,11.61
2022-10-05T21:09:34.610Z,11.60
2022-10-05T21:12:01.762Z,11.59
2022-10-05T21:14:33.395Z,11.57
2022-10-05T21:17:01.278Z,11.55
2022-10-05T21:19:30.056Z,11.53
2022-10-05T21:22:01.027Z,11.52
2022-10-05T21:24:28.195Z,11.49
2022-10-05T21:26:58.456Z,11.47
2022-10-05T21:29:25.601Z,11.46
2022-10-05T21:31:52.949Z,11.44
2022-10-05T21:34:20.313Z,11.42
2022-10-05T21:36:47.597Z,11.39
2022-10-05T21:39:14.714Z,11.36
2022-10-05T21:41:41.870Z,11.33
2022-10-05T21:44:10.258Z,11.31
2022-10-05T21:46:38.638Z,11.29
2022-10-05T21:49:07.341Z,11.25
2022-10-05T21:51:35.696Z,11.22
2022-10-05T21:54:16.357Z,11.19
2022-10-05T21:56:45.860Z,11.16
2022-10-05T21:59:15.875Z,11.12
2022-10-05T22:01:44.049Z,11.08
2022-10-05T22:04:11.192Z,11.05
2022-10-05T22:06:38.296Z,11.02
2022-10-05T22:09:05.820Z,11.00
2022-10-05T22:11:33.699Z,10.96
2022-10-05T22:14:04.021Z,10.91
2022-10-05T22:16:34.674Z,10.89
2022-10-05T22:19:06.484Z,10.88
2022-10-05T22:21:38.296Z,10.89
2022-10-05T22:24:05.998Z,10.89
2022-10-05T22:26:33.379Z,10.87
2022-10-05T22:29:02.080Z,10.87
2022-10-05T22:31:29.536Z,10.93
2022-10-05T22:33:57.306Z,11.04
2022-10-05T22:36:24.504Z,11.19
2022-10-05T22:38:51.868Z,11.33
2022-10-05T22:41:19.953Z,11.50
2022-10-05T22:43:50.464Z,11.68
2022-10-05T22:46:18.036Z,11.91
2022-10-05T22:48:45.293Z,12.15
2022-10-05T22:51:12.649Z,12.38
2022-10-05T22:53:40.109Z,12.59
2022-10-05T22:56:12.896Z,12.74
2022-10-05T22:58:40.750Z,12.86
2022-10-05T23:01:10.427Z,12.96
2022-10-05T23:03:37.790Z,13.05
2022-10-05T23:06:10.609Z,13.12
2022-10-05T23:08:38.608Z,13.18
2022-10-05T23:11:05.763Z,13.24
2022-10-05T23:13:33.872Z,13.31
2022-10-05T23:16:16.227Z,13.35
2022-10-05T23:18:44.058Z,13.40
2022-10-05T23:21:12.040Z,13.43
2022-10-05T23:23:41.637Z,13.47
2022-10-05T23:26:10.838Z,13.52
2022-10-05T23:28:40.648Z,13.55
2022-10-05T23:31:09.276Z,13.56
2022-10-05T23:33:36.697Z,13.58
2022-10-05T23:36:07.735Z,13.62
2022-10-05T23:38:36.308Z,13.68
2022-10-05T23:41:04.791Z,13.73
2022-10-05T23:43:33.646Z,13.76
2022-10-05T23:46:00.996Z,13.77
2022-10-05T23:48:28.533Z,13.77
2022-10-05T23:50:56.350Z,13.72
2022-10-05T23:53:23.811Z,13.63
2022-10-05T23:55:54.676Z,13.53
2022-10-05T23:58:22.535Z,13.43
